sensor_id;sensor_type;location;lat;lon;timestamp;P1;durP1;ratioP1;P2;durP2;ratioP2
52894;SDS011;38759;53.396;6.722;2023-04-15T00:01:24;15.80;;;6.88;;
52894;SDS011;38759;53.396;6.722;2023-04-15T00:03:50;15.20;;;7.00;;
52894;SDS011;38759;53.396;6.722;2023-04-15T00:06:17;13.25;;;6.40;;
52894;SDS011;38759;53.396;6.722;2023-04-15T00:08:44;11.38;;;5.95;;
52894;SDS011;38759;53.396;6.722;2023-04-15T00:11:10;13.70;;;5.78;;
52894;SDS011;38759;53.396;6.722;2023-04-15T00:13:36;13.30;;;5.80;;
52894;SDS011;38759;53.396;6.722;2023-04-15T00:16:03;14.85;;;6.55;;
52894;SDS011;38759;53.396;6.722;2023-04-15T00:18:30;11.70;;;6.72;;
52894;SDS011;38759;53.396;6.722;2023-04-15T00:20:56;13.05;;;6.45;;
52894;SDS011;38759;53.396;6.722;2023-04-15T00:23:22;12.63;;;6.35;;
52894;SDS011;38759;53.396;6.722;2023-04-15T00:25:47;14.75;;;5.72;;
52894;SDS011;38759;53.396;6.722;2023-04-15T00:28:13;12.13;;;6.45;;
52894;SDS011;38759;53.396;6.722;2023-04-15T00:30:39;14.40;;;5.85;;
52894;SDS011;38759;53.396;6.722;2023-04-15T00:33:05;10.93;;;6.28;;
52894;SDS011;38759;53.396;6.722;2023-04-15T00:35:32;11.93;;;5.72;;
52894;SDS011;38759;53.396;6.722;2023-04-15T00:37:57;15.20;;;6.20;;
52894;SDS011;38759;53.396;6.722;2023-04-15T00:40:23;17.92;;;6.30;;
52894;SDS011;38759;53.396;6.722;2023-04-15T00:42:50;10.30;;;5.50;;
52894;SDS011;38759;53.396;6.722;2023-04-15T00:45:16;9.52;;;5.60;;
52894;SDS011;38759;53.396;6.722;2023-04-15T00:47:42;11.30;;;5.60;;
52894;SDS011;38759;53.396;6.722;2023-04-15T00:50:09;9.70;;;5.40;;
52894;SDS011;38759;53.396;6.722;2023-04-15T00:52:36;9.38;;;5.45;;
52894;SDS011;38759;53.396;6.722;2023-04-15T00:55:03;13.02;;;5.50;;
52894;SDS011;38759;53.396;6.722;2023-04-15T00:57:29;8.63;;;5.47;;
52894;SDS011;38759;53.396;6.722;2023-04-15T00:59:55;12.52;;;5.57;;
52894;SDS011;38759;53.396;6.722;2023-04-15T01:02:22;9.02;;;5.22;;
52894;SDS011;38759;53.396;6.722;2023-04-15T01:04:48;9.65;;;4.93;;
52894;SDS011;38759;53.396;6.722;2023-04-15T01:07:14;13.13;;;5.45;;
52894;SDS011;38759;53.396;6.722;2023-04-15T01:09:40;9.45;;;5.38;;
52894;SDS011;38759;53.396;6.722;2023-04-15T01:12:06;8.05;;;5.15;;
52894;SDS011;38759;53.396;6.722;2023-04-15T01:14:35;9.85;;;5.20;;
52894;SDS011;38759;53.396;6.722;2023-04-15T01:17:01;12.20;;;5.25;;
52894;SDS011;38759;53.396;6.722;2023-04-15T01:19:27;15.35;;;5.38;;
52894;SDS011;38759;53.396;6.722;2023-04-15T01:21:53;24.55;;;6.30;;
52894;SDS011;38759;53.396;6.722;2023-04-15T01:24:19;12.32;;;6.28;;
52894;SDS011;38759;53.396;6.722;2023-04-15T01:26:45;21.10;;;5.75;;
52894;SDS011;38759;53.396;6.722;2023-04-15T01:29:11;10.93;;;5.82;;
52894;SDS011;38759;53.396;6.722;2023-04-15T01:31:37;13.55;;;5.40;;
52894;SDS011;38759;53.396;6.722;2023-04-15T01:34:03;10.40;;;5.55;;
52894;SDS011;38759;53.396;6.722;2023-04-15T01:36:28;13.70;;;5.78;;
52894;SDS011;38759;53.396;6.722;2023-04-15T01:38:55;11.25;;;6.00;;
52894;SDS011;38759;53.396;6.722;2023-04-15T01:41:27;11.63;;;6.45;;
52894;SDS011;38759;53.396;6.722;2023-04-15T01:43:53;12.82;;;6.32;;
52894;SDS011;38759;53.396;6.722;2023-04-15T01:46:19;13.95;;;6.63;;
52894;SDS011;38759;53.396;6.722;2023-04-15T01:48:46;17.77;;;7.00;;
52894;SDS011;38759;53.396;6.722;2023-04-15T01:51:12;14.48;;;6.20;;
52894;SDS011;38759;53.396;6.722;2023-04-15T01:53:37;20.50;;;7.10;;
52894;SDS011;38759;53.396;6.722;2023-04-15T01:56:03;24.17;;;7.35;;
52894;SDS011;38759;53.396;6.722;2023-04-15T01:58:29;14.95;;;6.50;;
52894;SDS011;38759;53.396;6.722;2023-04-15T02:00:55;19.88;;;8.32;;
52894;SDS011;38759;53.396;6.722;2023-04-15T02:05:47;12.50;;;7.65;;
52894;SDS011;38759;53.396;6.722;2023-04-15T02:08:13;13.23;;;7.30;;
52894;SDS011;38759;53.396;6.722;2023-04-15T02:10:39;14.05;;;7.25;;
52894;SDS011;38759;53.396;6.722;2023-04-15T02:13:04;17.77;;;7.82;;
52894;SDS011;38759;53.396;6.722;2023-04-15T02:15:30;13.43;;;7.22;;
52894;SDS011;38759;53.396;6.722;2023-04-15T02:17:55;16.92;;;8.85;;
52894;SDS011;38759;53.396;6.722;2023-04-15T02:20:23;14.35;;;8.70;;
52894;SDS011;38759;53.396;6.722;2023-04-15T02:22:48;13.70;;;7.63;;
52894;SDS011;38759;53.396;6.722;2023-04-15T02:25:14;17.75;;;7.55;;
52894;SDS011;38759;53.396;6.722;2023-04-15T02:27:44;12.00;;;7.10;;
52894;SDS011;38759;53.396;6.722;2023-04-15T02:30:10;15.10;;;7.85;;
52894;SDS011;38759;53.396;6.722;2023-04-15T02:32:36;15.27;;;7.60;;
52894;SDS011;38759;53.396;6.722;2023-04-15T02:35:05;11.70;;;6.38;;
52894;SDS011;38759;53.396;6.722;2023-04-15T02:37:33;11.48;;;6.75;;
52894;SDS011;38759;53.396;6.722;2023-04-15T02:40:05;12.07;;;6.50;;
52894;SDS011;38759;53.396;6.722;2023-04-15T02:42:37;13.45;;;7.47;;
52894;SDS011;38759;53.396;6.722;2023-04-15T02:45:04;12.68;;;6.72;;
52894;SDS011;38759;53.396;6.722;2023-04-15T02:47:32;14.52;;;8.07;;
52894;SDS011;38759;53.396;6.722;2023-04-15T02:50:04;13.88;;;8.05;;
52894;SDS011;38759;53.396;6.722;2023-04-15T02:52:32;12.80;;;7.80;;
52894;SDS011;38759;53.396;6.722;2023-04-15T02:54:57;15.20;;;8.25;;
52894;SDS011;38759;53.396;6.722;2023-04-15T02:57:26;15.93;;;8.38;;
52894;SDS011;38759;53.396;6.722;2023-04-15T02:59:53;15.55;;;8.75;;
52894;SDS011;38759;53.396;6.722;2023-04-15T03:02:19;17.02;;;9.52;;
52894;SDS011;38759;53.396;6.722;2023-04-15T03:04:45;16.00;;;8.20;;
52894;SDS011;38759;53.396;6.722;2023-04-15T03:07:11;15.50;;;8.65;;
52894;SDS011;38759;53.396;6.722;2023-04-15T03:09:36;15.98;;;8.48;;
52894;SDS011;38759;53.396;6.722;2023-04-15T03:12:04;17.02;;;9.38;;
52894;SDS011;38759;53.396;6.722;2023-04-15T03:14:30;15.38;;;8.27;;
52894;SDS011;38759;53.396;6.722;2023-04-15T03:16:55;16.15;;;9.30;;
52894;SDS011;38759;53.396;6.722;2023-04-15T03:19:23;17.08;;;8.55;;
52894;SDS011;38759;53.396;6.722;2023-04-15T03:21:49;16.38;;;8.88;;
52894;SDS011;38759;53.396;6.722;2023-04-15T03:24:14;15.13;;;7.63;;
52894;SDS011;38759;53.396;6.722;2023-04-15T03:26:40;14.52;;;8.25;;
52894;SDS011;38759;53.396;6.722;2023-04-15T03:29:06;15.35;;;8.48;;
52894;SDS011;38759;53.396;6.722;2023-04-15T03:31:31;9.13;;;5.78;;
52894;SDS011;38759;53.396;6.722;2023-04-15T03:33:57;9.40;;;5.55;;
52894;SDS011;38759;53.396;6.722;2023-04-15T03:36:23;14.07;;;7.70;;
52894;SDS011;38759;53.396;6.722;2023-04-15T03:38:48;11.32;;;6.70;;
52894;SDS011;38759;53.396;6.722;2023-04-15T03:41:14;9.93;;;5.75;;
52894;SDS011;38759;53.396;6.722;2023-04-15T03:43:40;10.93;;;6.00;;
52894;SDS011;38759;53.396;6.722;2023-04-15T03:46:05;11.38;;;5.90;;
52894;SDS011;38759;53.396;6.722;2023-04-15T03:48:31;11.07;;;6.07;;
52894;SDS011;38759;53.396;6.722;2023-04-15T03:50:57;10.05;;;5.80;;
52894;SDS011;38759;53.396;6.722;2023-04-15T03:53:22;11.55;;;6.03;;
52894;SDS011;38759;53.396;6.722;2023-04-15T03:55:48;9.25;;;5.78;;
52894;SDS011;38759;53.396;6.722;2023-04-15T03:58:14;11.48;;;5.32;;
52894;SDS011;38759;53.396;6.722;2023-04-15T04:00:40;9.43;;;5.18;;
52894;SDS011;38759;53.396;6.722;2023-04-15T04:03:06;9.25;;;5.78;;
52894;SDS011;38759;53.396;6.722;2023-04-15T04:05:32;8.05;;;4.63;;
52894;SDS011;38759;53.396;6.722;2023-04-15T04:08:01;9.75;;;5.22;;
52894;SDS011;38759;53.396;6.722;2023-04-15T04:10:26;10.15;;;5.20;;
52894;SDS011;38759;53.396;6.722;2023-04-15T04:12:52;13.57;;;4.85;;
52894;SDS011;38759;53.396;6.722;2023-04-15T04:15:18;10.23;;;5.30;;
52894;SDS011;38759;53.396;6.722;2023-04-15T04:17:43;7.72;;;5.00;;
52894;SDS011;38759;53.396;6.722;2023-04-15T04:20:09;9.50;;;5.75;;
52894;SDS011;38759;53.396;6.722;2023-04-15T04:22:38;11.00;;;5.93;;
52894;SDS011;38759;53.396;6.722;2023-04-15T04:25:05;15.57;;;6.43;;
52894;SDS011;38759;53.396;6.722;2023-04-15T04:27:32;12.13;;;5.70;;
52894;SDS011;38759;53.396;6.722;2023-04-15T04:29:58;16.02;;;5.80;;
52894;SDS011;38759;53.396;6.722;2023-04-15T04:32:24;10.88;;;6.10;;
52894;SDS011;38759;53.396;6.722;2023-04-15T04:34:49;11.32;;;6.10;;
52894;SDS011;38759;53.396;6.722;2023-04-15T04:37:15;11.65;;;6.00;;
52894;SDS011;38759;53.396;6.722;2023-04-15T04:39:41;15.02;;;6.38;;
52894;SDS011;38759;53.396;6.722;2023-04-15T04:42:06;11.43;;;6.30;;
52894;SDS011;38759;53.396;6.722;2023-04-15T04:44:32;12.70;;;7.00;;
52894;SDS011;38759;53.396;6.722;2023-04-15T04:46:58;13.70;;;6.82;;
52894;SDS011;38759;53.396;6.722;2023-04-15T04:49:23;14.02;;;7.22;;
52894;SDS011;38759;53.396;6.722;2023-04-15T04:51:49;14.10;;;8.05;;
52894;SDS011;38759;53.396;6.722;2023-04-15T04:54:15;13.75;;;7.40;;
52894;SDS011;38759;53.396;6.722;2023-04-15T04:56:41;16.52;;;8.05;;
52894;SDS011;38759;53.396;6.722;2023-04-15T04:59:07;15.90;;;7.65;;
52894;SDS011;38759;53.396;6.722;2023-04-15T05:01:33;17.00;;;7.53;;
52894;SDS011;38759;53.396;6.722;2023-04-15T05:03:59;16.92;;;8.82;;
52894;SDS011;38759;53.396;6.722;2023-04-15T05:06:25;20.48;;;8.98;;
52894;SDS011;38759;53.396;6.722;2023-04-15T05:08:51;15.55;;;7.25;;
52894;SDS011;38759;53.396;6.722;2023-04-15T05:11:17;22.55;;;9.45;;
52894;SDS011;38759;53.396;6.722;2023-04-15T05:13:43;23.83;;;9.32;;
52894;SDS011;38759;53.396;6.722;2023-04-15T05:16:08;22.05;;;8.57;;
52894;SDS011;38759;53.396;6.722;2023-04-15T05:18:34;20.58;;;7.95;;
52894;SDS011;38759;53.396;6.722;2023-04-15T05:21:00;15.60;;;7.15;;
52894;SDS011;38759;53.396;6.722;2023-04-15T05:23:26;12.30;;;6.80;;
52894;SDS011;38759;53.396;6.722;2023-04-15T05:25:52;15.43;;;7.20;;
52894;SDS011;38759;53.396;6.722;2023-04-15T05:28:18;14.40;;;6.32;;
52894;SDS011;38759;53.396;6.722;2023-04-15T05:30:43;11.88;;;6.47;;
52894;SDS011;38759;53.396;6.722;2023-04-15T05:33:09;12.05;;;6.50;;
52894;SDS011;38759;53.396;6.722;2023-04-15T05:35:35;12.57;;;6.30;;
52894;SDS011;38759;53.396;6.722;2023-04-15T05:38:00;14.40;;;6.22;;
52894;SDS011;38759;53.396;6.722;2023-04-15T05:40:26;18.23;;;6.55;;
52894;SDS011;38759;53.396;6.722;2023-04-15T05:42:52;15.63;;;6.05;;
52894;SDS011;38759;53.396;6.722;2023-04-15T05:45:17;14.25;;;6.97;;
52894;SDS011;38759;53.396;6.722;2023-04-15T05:47:43;13.40;;;6.75;;
52894;SDS011;38759;53.396;6.722;2023-04-15T05:50:09;14.32;;;7.47;;
52894;SDS011;38759;53.396;6.722;2023-04-15T05:52:35;14.70;;;6.97;;
52894;SDS011;38759;53.396;6.722;2023-04-15T05:55:01;13.10;;;7.30;;
52894;SDS011;38759;53.396;6.722;2023-04-15T05:57:26;13.63;;;7.35;;
52894;SDS011;38759;53.396;6.722;2023-04-15T05:59:52;15.43;;;7.03;;
52894;SDS011;38759;53.396;6.722;2023-04-15T06:02:18;12.05;;;6.72;;
52894;SDS011;38759;53.396;6.722;2023-04-15T06:04:43;14.65;;;7.45;;
52894;SDS011;38759;53.396;6.722;2023-04-15T06:07:09;12.63;;;7.07;;
52894;SDS011;38759;53.396;6.722;2023-04-15T06:09:35;19.52;;;7.93;;
52894;SDS011;38759;53.396;6.722;2023-04-15T06:12:00;14.70;;;8.45;;
52894;SDS011;38759;53.396;6.722;2023-04-15T06:14:27;14.35;;;7.38;;
52894;SDS011;38759;53.396;6.722;2023-04-15T06:16:53;22.50;;;8.60;;
52894;SDS011;38759;53.396;6.722;2023-04-15T06:19:18;14.70;;;7.50;;
52894;SDS011;38759;53.396;6.722;2023-04-15T06:21:44;13.88;;;7.68;;
52894;SDS011;38759;53.396;6.722;2023-04-15T06:24:10;15.43;;;7.93;;
52894;SDS011;38759;53.396;6.722;2023-04-15T06:26:36;15.68;;;7.38;;
52894;SDS011;38759;53.396;6.722;2023-04-15T06:29:02;16.95;;;7.25;;
52894;SDS011;38759;53.396;6.722;2023-04-15T06:31:28;18.58;;;7.75;;
52894;SDS011;38759;53.396;6.722;2023-04-15T06:33:54;15.13;;;7.38;;
52894;SDS011;38759;53.396;6.722;2023-04-15T06:36:20;18.48;;;7.78;;
52894;SDS011;38759;53.396;6.722;2023-04-15T06:38:46;15.77;;;7.03;;
52894;SDS011;38759;53.396;6.722;2023-04-15T06:41:11;17.33;;;7.30;;
52894;SDS011;38759;53.396;6.722;2023-04-15T06:43:37;18.63;;;8.07;;
52894;SDS011;38759;53.396;6.722;2023-04-15T06:46:03;16.80;;;7.03;;
52894;SDS011;38759;53.396;6.722;2023-04-15T06:48:29;14.98;;;6.97;;
52894;SDS011;38759;53.396;6.722;2023-04-15T06:50:55;14.65;;;6.82;;
52894;SDS011;38759;53.396;6.722;2023-04-15T06:53:23;18.08;;;7.15;;
52894;SDS011;38759;53.396;6.722;2023-04-15T06:55:51;19.80;;;8.02;;
52894;SDS011;38759;53.396;6.722;2023-04-15T06:58:16;14.02;;;7.00;;
52894;SDS011;38759;53.396;6.722;2023-04-15T07:00:42;14.90;;;7.20;;
52894;SDS011;38759;53.396;6.722;2023-04-15T07:03:08;13.18;;;6.22;;
52894;SDS011;38759;53.396;6.722;2023-04-15T07:05:37;17.95;;;7.35;;
52894;SDS011;38759;53.396;6.722;2023-04-15T07:08:03;13.07;;;6.20;;
52894;SDS011;38759;53.396;6.722;2023-04-15T07:10:29;11.10;;;5.82;;
52894;SDS011;38759;53.396;6.722;2023-04-15T07:12:55;11.98;;;6.30;;
52894;SDS011;38759;53.396;6.722;2023-04-15T07:15:21;12.73;;;6.70;;
52894;SDS011;38759;53.396;6.722;2023-04-15T07:17:47;14.07;;;6.40;;
52894;SDS011;38759;53.396;6.722;2023-04-15T07:20:13;16.98;;;6.40;;
52894;SDS011;38759;53.396;6.722;2023-04-15T07:22:39;14.48;;;5.95;;
52894;SDS011;38759;53.396;6.722;2023-04-15T07:25:05;10.40;;;6.20;;
52894;SDS011;38759;53.396;6.722;2023-04-15T07:27:31;13.07;;;6.90;;
52894;SDS011;38759;53.396;6.722;2023-04-15T07:29:57;11.38;;;6.93;;
52894;SDS011;38759;53.396;6.722;2023-04-15T07:32:23;12.35;;;6.70;;
52894;SDS011;38759;53.396;6.722;2023-04-15T07:34:48;15.02;;;6.35;;
52894;SDS011;38759;53.396;6.722;2023-04-15T07:37:14;16.42;;;7.22;;
52894;SDS011;38759;53.396;6.722;2023-04-15T07:39:40;16.90;;;6.97;;
52894;SDS011;38759;53.396;6.722;2023-04-15T07:42:06;20.50;;;6.97;;
52894;SDS011;38759;53.396;6.722;2023-04-15T07:44:32;20.42;;;5.93;;
52894;SDS011;38759;53.396;6.722;2023-04-15T07:46:58;10.02;;;5.28;;
52894;SDS011;38759;53.396;6.722;2023-04-15T07:49:24;10.63;;;5.20;;
52894;SDS011;38759;53.396;6.722;2023-04-15T07:51:49;7.70;;;4.30;;
52894;SDS011;38759;53.396;6.722;2023-04-15T07:54:15;8.98;;;4.03;;
52894;SDS011;38759;53.396;6.722;2023-04-15T07:56:41;6.88;;;3.88;;
52894;SDS011;38759;53.396;6.722;2023-04-15T07:59:08;8.05;;;4.07;;
52894;SDS011;38759;53.396;6.722;2023-04-15T08:01:34;9.20;;;4.20;;
52894;SDS011;38759;53.396;6.722;2023-04-15T08:04:00;10.07;;;4.32;;
52894;SDS011;38759;53.396;6.722;2023-04-15T08:06:27;8.32;;;3.92;;
52894;SDS011;38759;53.396;6.722;2023-04-15T08:08:53;8.45;;;3.60;;
52894;SDS011;38759;53.396;6.722;2023-04-15T08:11:19;5.68;;;3.10;;
52894;SDS011;38759;53.396;6.722;2023-04-15T08:13:45;7.18;;;3.28;;
52894;SDS011;38759;53.396;6.722;2023-04-15T08:16:24;7.30;;;3.33;;
52894;SDS011;38759;53.396;6.722;2023-04-15T08:18:52;9.82;;;3.03;;
52894;SDS011;38759;53.396;6.722;2023-04-15T08:21:19;6.15;;;2.60;;
52894;SDS011;38759;53.396;6.722;2023-04-15T08:23:46;7.80;;;2.92;;
52894;SDS011;38759;53.396;6.722;2023-04-15T08:26:14;4.55;;;2.30;;
52894;SDS011;38759;53.396;6.722;2023-04-15T08:28:40;5.45;;;2.15;;
52894;SDS011;38759;53.396;6.722;2023-04-15T08:31:06;6.97;;;2.05;;
52894;SDS011;38759;53.396;6.722;2023-04-15T08:33:33;4.97;;;2.05;;
52894;SDS011;38759;53.396;6.722;2023-04-15T08:35:59;3.13;;;1.75;;
52894;SDS011;38759;53.396;6.722;2023-04-15T08:38:24;5.85;;;1.80;;
52894;SDS011;38759;53.396;6.722;2023-04-15T08:40:50;3.38;;;1.70;;
52894;SDS011;38759;53.396;6.722;2023-04-15T08:43:23;7.28;;;1.80;;
52894;SDS011;38759;53.396;6.722;2023-04-15T08:53:12;2.35;;;1.55;;
52894;SDS011;38759;53.396;6.722;2023-04-15T08:55:41;1.50;;;1.40;;
52894;SDS011;38759;53.396;6.722;2023-04-15T08:58:11;4.68;;;1.52;;
52894;SDS011;38759;53.396;6.722;2023-04-15T09:00:38;4.40;;;1.80;;
52894;SDS011;38759;53.396;6.722;2023-04-15T09:03:05;2.83;;;1.77;;
52894;SDS011;38759;53.396;6.722;2023-04-15T09:05:32;2.90;;;1.55;;
52894;SDS011;38759;53.396;6.722;2023-04-15T09:07:59;3.85;;;1.75;;
52894;SDS011;38759;53.396;6.722;2023-04-15T09:10:26;3.33;;;1.60;;
52894;SDS011;38759;53.396;6.722;2023-04-15T09:12:52;4.22;;;1.90;;
52894;SDS011;38759;53.396;6.722;2023-04-15T09:15:18;3.25;;;2.00;;
52894;SDS011;38759;53.396;6.722;2023-04-15T09:17:45;3.08;;;1.65;;
52894;SDS011;38759;53.396;6.722;2023-04-15T09:20:11;3.53;;;2.05;;
52894;SDS011;38759;53.396;6.722;2023-04-15T09:22:39;10.18;;;2.30;;
52894;SDS011;38759;53.396;6.722;2023-04-15T09:27:51;2.33;;;1.60;;
52894;SDS011;38759;53.396;6.722;2023-04-15T09:30:20;18.48;;;2.10;;
52894;SDS011;38759;53.396;6.722;2023-04-15T09:32:53;7.70;;;1.70;;
52894;SDS011;38759;53.396;6.722;2023-04-15T09:35:24;4.45;;;1.52;;
52894;SDS011;38759;53.396;6.722;2023-04-15T09:37:51;3.65;;;1.42;;
52894;SDS011;38759;53.396;6.722;2023-04-15T09:42:56;3.38;;;1.50;;
52894;SDS011;38759;53.396;6.722;2023-04-15T09:45:22;3.58;;;1.40;;
52894;SDS011;38759;53.396;6.722;2023-04-15T09:47:48;6.30;;;1.55;;
52894;SDS011;38759;53.396;6.722;2023-04-15T09:50:15;6.50;;;1.70;;
52894;SDS011;38759;53.396;6.722;2023-04-15T09:52:42;7.20;;;2.28;;
52894;SDS011;38759;53.396;6.722;2023-04-15T09:55:08;4.45;;;1.80;;
52894;SDS011;38759;53.396;6.722;2023-04-15T09:57:36;3.58;;;1.77;;
52894;SDS011;38759;53.396;6.722;2023-04-15T10:00:06;3.35;;;1.92;;
52894;SDS011;38759;53.396;6.722;2023-04-15T10:02:34;5.30;;;1.88;;
52894;SDS011;38759;53.396;6.722;2023-04-15T10:05:01;6.93;;;1.98;;
52894;SDS011;38759;53.396;6.722;2023-04-15T10:07:27;4.85;;;1.70;;
52894;SDS011;38759;53.396;6.722;2023-04-15T10:09:53;4.78;;;1.80;;
52894;SDS011;38759;53.396;6.722;2023-04-15T10:12:20;8.38;;;2.08;;
52894;SDS011;38759;53.396;6.722;2023-04-15T10:14:47;5.65;;;2.05;;
52894;SDS011;38759;53.396;6.722;2023-04-15T10:17:29;8.00;;;2.17;;
52894;SDS011;38759;53.396;6.722;2023-04-15T10:19:59;7.65;;;2.03;;
52894;SDS011;38759;53.396;6.722;2023-04-15T10:22:27;5.32;;;2.00;;
52894;SDS011;38759;53.396;6.722;2023-04-15T10:24:52;6.70;;;2.28;;
52894;SDS011;38759;53.396;6.722;2023-04-15T10:27:20;4.80;;;2.35;;
52894;SDS011;38759;53.396;6.722;2023-04-15T10:29:48;6.63;;;2.42;;
52894;SDS011;38759;53.396;6.722;2023-04-15T10:32:17;9.82;;;2.00;;
52894;SDS011;38759;53.396;6.722;2023-04-15T10:34:45;7.15;;;2.22;;
52894;SDS011;38759;53.396;6.722;2023-04-15T10:37:18;6.03;;;2.08;;
52894;SDS011;38759;53.396;6.722;2023-04-15T10:39:45;8.48;;;1.80;;
52894;SDS011;38759;53.396;6.722;2023-04-15T10:42:12;6.10;;;1.80;;
52894;SDS011;38759;53.396;6.722;2023-04-15T10:44:43;4.38;;;2.00;;
52894;SDS011;38759;53.396;6.722;2023-04-15T10:47:16;4.45;;;2.00;;
52894;SDS011;38759;53.396;6.722;2023-04-15T10:49:47;7.85;;;2.00;;
52894;SDS011;38759;53.396;6.722;2023-04-15T10:52:15;5.45;;;1.90;;
52894;SDS011;38759;53.396;6.722;2023-04-15T10:54:42;5.40;;;1.83;;
52894;SDS011;38759;53.396;6.722;2023-04-15T10:57:13;10.07;;;1.90;;
52894;SDS011;38759;53.396;6.722;2023-04-15T11:02:37;8.88;;;2.00;;
52894;SDS011;38759;53.396;6.722;2023-04-15T11:05:05;3.70;;;1.40;;
52894;SDS011;38759;53.396;6.722;2023-04-15T11:07:38;7.75;;;1.95;;
52894;SDS011;38759;53.396;6.722;2023-04-15T11:12:37;8.18;;;2.10;;
52894;SDS011;38759;53.396;6.722;2023-04-15T11:17:58;8.82;;;2.42;;
52894;SDS011;38759;53.396;6.722;2023-04-15T11:22:58;14.10;;;2.03;;
52894;SDS011;38759;53.396;6.722;2023-04-15T11:25:28;8.45;;;1.83;;
52894;SDS011;38759;53.396;6.722;2023-04-15T11:27:59;8.13;;;1.90;;
52894;SDS011;38759;53.396;6.722;2023-04-15T11:30:27;10.25;;;1.80;;
52894;SDS011;38759;53.396;6.722;2023-04-15T11:32:56;6.03;;;1.42;;
52894;SDS011;38759;53.396;6.722;2023-04-15T11:35:23;5.45;;;1.33;;
52894;SDS011;38759;53.396;6.722;2023-04-15T11:37:49;9.95;;;1.63;;
52894;SDS011;38759;53.396;6.722;2023-04-15T11:40:22;8.98;;;2.20;;
52894;SDS011;38759;53.396;6.722;2023-04-15T11:45:49;12.27;;;2.17;;
52894;SDS011;38759;53.396;6.722;2023-04-15T11:48:25;7.43;;;1.80;;
52894;SDS011;38759;53.396;6.722;2023-04-15T11:51:00;8.90;;;2.30;;
52894;SDS011;38759;53.396;6.722;2023-04-15T11:53:35;7.55;;;1.63;;
52894;SDS011;38759;53.396;6.722;2023-04-15T11:58:28;7.57;;;1.60;;
52894;SDS011;38759;53.396;6.722;2023-04-15T12:00:57;6.25;;;1.52;;
52894;SDS011;38759;53.396;6.722;2023-04-15T12:14:19;13.07;;;2.00;;
52894;SDS011;38759;53.396;6.722;2023-04-15T12:16:49;7.75;;;1.77;;
52894;SDS011;38759;53.396;6.722;2023-04-15T12:22:07;8.20;;;1.60;;
52894;SDS011;38759;53.396;6.722;2023-04-15T12:24:35;7.90;;;1.40;;
52894;SDS011;38759;53.396;6.722;2023-04-15T12:27:05;9.32;;;1.58;;
52894;SDS011;38759;53.396;6.722;2023-04-15T12:29:32;8.48;;;1.70;;
52894;SDS011;38759;53.396;6.722;2023-04-15T12:32:12;11.73;;;1.92;;
52894;SDS011;38759;53.396;6.722;2023-04-15T12:34:44;9.77;;;1.75;;
52894;SDS011;38759;53.396;6.722;2023-04-15T12:37:15;7.88;;;1.70;;
52894;SDS011;38759;53.396;6.722;2023-04-15T12:39:41;9.07;;;1.67;;
52894;SDS011;38759;53.396;6.722;2023-04-15T12:42:08;10.90;;;1.40;;
52894;SDS011;38759;53.396;6.722;2023-04-15T12:44:35;11.95;;;1.83;;
52894;SDS011;38759;53.396;6.722;2023-04-15T12:47:02;10.20;;;2.03;;
52894;SDS011;38759;53.396;6.722;2023-04-15T12:49:28;5.22;;;1.45;;
52894;SDS011;38759;53.396;6.722;2023-04-15T12:51:55;4.55;;;1.30;;
52894;SDS011;38759;53.396;6.722;2023-04-15T12:54:21;7.00;;;1.75;;
52894;SDS011;38759;53.396;6.722;2023-04-15T12:56:48;9.70;;;1.95;;
52894;SDS011;38759;53.396;6.722;2023-04-15T12:59:14;7.25;;;1.73;;
52894;SDS011;38759;53.396;6.722;2023-04-15T13:01:42;7.78;;;1.70;;
52894;SDS011;38759;53.396;6.722;2023-04-15T13:04:08;8.95;;;1.55;;
52894;SDS011;38759;53.396;6.722;2023-04-15T13:06:34;13.15;;;2.10;;
52894;SDS011;38759;53.396;6.722;2023-04-15T13:09:01;15.68;;;2.08;;
52894;SDS011;38759;53.396;6.722;2023-04-15T13:11:27;7.88;;;1.60;;
52894;SDS011;38759;53.396;6.722;2023-04-15T13:14:01;10.30;;;1.67;;
52894;SDS011;38759;53.396;6.722;2023-04-15T13:16:29;9.15;;;1.73;;
52894;SDS011;38759;53.396;6.722;2023-04-15T13:18:55;9.48;;;1.45;;
52894;SDS011;38759;53.396;6.722;2023-04-15T13:21:21;10.65;;;1.90;;
52894;SDS011;38759;53.396;6.722;2023-04-15T13:23:48;8.63;;;2.10;;
52894;SDS011;38759;53.396;6.722;2023-04-15T13:26:15;13.18;;;1.85;;
52894;SDS011;38759;53.396;6.722;2023-04-15T13:28:41;8.88;;;1.95;;
52894;SDS011;38759;53.396;6.722;2023-04-15T13:31:07;15.73;;;2.40;;
52894;SDS011;38759;53.396;6.722;2023-04-15T13:33:32;4.88;;;1.95;;
52894;SDS011;38759;53.396;6.722;2023-04-15T13:35:58;16.73;;;2.72;;
52894;SDS011;38759;53.396;6.722;2023-04-15T13:38:24;8.35;;;2.13;;
52894;SDS011;38759;53.396;6.722;2023-04-15T13:40:50;11.20;;;2.03;;
52894;SDS011;38759;53.396;6.722;2023-04-15T13:43:16;8.60;;;1.75;;
52894;SDS011;38759;53.396;6.722;2023-04-15T13:45:42;11.68;;;2.03;;
52894;SDS011;38759;53.396;6.722;2023-04-15T13:48:08;9.63;;;1.60;;
52894;SDS011;38759;53.396;6.722;2023-04-15T13:50:34;10.73;;;2.13;;
52894;SDS011;38759;53.396;6.722;2023-04-15T13:53:00;9.43;;;2.10;;
52894;SDS011;38759;53.396;6.722;2023-04-15T13:55:25;7.95;;;1.88;;
52894;SDS011;38759;53.396;6.722;2023-04-15T13:57:51;10.38;;;2.03;;
52894;SDS011;38759;53.396;6.722;2023-04-15T14:00:17;12.82;;;2.35;;
52894;SDS011;38759;53.396;6.722;2023-04-15T14:02:42;9.68;;;2.20;;
52894;SDS011;38759;53.396;6.722;2023-04-15T14:05:09;9.45;;;1.90;;
52894;SDS011;38759;53.396;6.722;2023-04-15T14:07:34;9.57;;;1.77;;
52894;SDS011;38759;53.396;6.722;2023-04-15T14:10:00;10.25;;;2.20;;
52894;SDS011;38759;53.396;6.722;2023-04-15T14:12:26;11.98;;;2.42;;
52894;SDS011;38759;53.396;6.722;2023-04-15T14:14:52;8.98;;;2.10;;
52894;SDS011;38759;53.396;6.722;2023-04-15T14:17:18;7.78;;;2.20;;
52894;SDS011;38759;53.396;6.722;2023-04-15T14:19:43;15.57;;;2.20;;
52894;SDS011;38759;53.396;6.722;2023-04-15T14:22:09;14.93;;;2.20;;
52894;SDS011;38759;53.396;6.722;2023-04-15T14:24:35;8.95;;;1.80;;
52894;SDS011;38759;53.396;6.722;2023-04-15T14:27:00;10.95;;;2.80;;
52894;SDS011;38759;53.396;6.722;2023-04-15T14:29:27;9.95;;;1.95;;
52894;SDS011;38759;53.396;6.722;2023-04-15T14:31:52;13.15;;;2.63;;
52894;SDS011;38759;53.396;6.722;2023-04-15T14:34:18;13.20;;;2.30;;
52894;SDS011;38759;53.396;6.722;2023-04-15T14:36:46;6.70;;;2.10;;
52894;SDS011;38759;53.396;6.722;2023-04-15T14:39:12;13.63;;;2.25;;
52894;SDS011;38759;53.396;6.722;2023-04-15T14:41:38;10.82;;;2.40;;
52894;SDS011;38759;53.396;6.722;2023-04-15T14:44:03;7.90;;;2.08;;
52894;SDS011;38759;53.396;6.722;2023-04-15T14:46:29;8.57;;;2.28;;
52894;SDS011;38759;53.396;6.722;2023-04-15T14:48:55;13.32;;;2.53;;
52894;SDS011;38759;53.396;6.722;2023-04-15T14:51:21;14.60;;;2.47;;
52894;SDS011;38759;53.396;6.722;2023-04-15T14:53:47;12.88;;;2.65;;
52894;SDS011;38759;53.396;6.722;2023-04-15T14:56:13;18.88;;;2.97;;
52894;SDS011;38759;53.396;6.722;2023-04-15T14:58:38;14.63;;;3.05;;
52894;SDS011;38759;53.396;6.722;2023-04-15T15:01:04;13.32;;;2.67;;
52894;SDS011;38759;53.396;6.722;2023-04-15T15:03:30;16.17;;;3.25;;
52894;SDS011;38759;53.396;6.722;2023-04-15T15:05:56;13.25;;;3.05;;
52894;SDS011;38759;53.396;6.722;2023-04-15T15:08:22;13.07;;;3.08;;
52894;SDS011;38759;53.396;6.722;2023-04-15T15:10:48;17.52;;;2.70;;
52894;SDS011;38759;53.396;6.722;2023-04-15T15:13:14;14.25;;;2.50;;
52894;SDS011;38759;53.396;6.722;2023-04-15T15:15:39;12.68;;;2.80;;
52894;SDS011;38759;53.396;6.722;2023-04-15T15:18:06;14.15;;;2.80;;
52894;SDS011;38759;53.396;6.722;2023-04-15T15:20:31;12.15;;;2.78;;
52894;SDS011;38759;53.396;6.722;2023-04-15T15:22:58;20.27;;;2.92;;